sensor_id;sensor_type;location;lat;lon;timestamp;pressure;altitude;pressure_sealevel;temperature;humidity
31162;BME280;17796;49.296;-117.656;2024-01-06T00:06:16;96700;;;0.68477;100.0
31162;BME280;17796;49.296;-117.656;2024-01-06T00:21:20;96700;;;1.68161;100.0
31162;BME280;17796;49.296;-117.656;2024-01-06T00:36:24;96700;;;-0.01133;100.0
31162;BME280;17796;49.296;-117.656;2024-01-06T00:51:28;96600;;;0.29194;100.0
31162;BME280;17796;49.296;-117.656;2024-01-06T01:06:31;96600;;;0.4558;100.0
31162;BME280;17796;49.296;-117.656;2024-01-06T01:21:35;96600;;;1.77148;100.0
31162;BME280;17796;49.296;-117.656;2024-01-06T01:36:39;96600;;;0.3418;100.0
31162;BME280;17796;49.296;-117.656;2024-01-06T01:51:43;96500;;;0.82354;100.0
31162;BME280;17796;49.296;-117.656;2024-01-06T02:06:47;96500;;;0.47264;100.0
31162;BME280;17796;49.296;-117.656;2024-01-06T02:21:52;96500;;;1.08903;100.0
31162;BME280;17796;49.296;-117.656;2024-01-06T02:36:56;96500;;;1.81467;100.0
31162;BME280;17796;49.296;-117.656;2024-01-06T02:51:59;96500;;;1.76926;100.0
31162;BME280;17796;49.296;-117.656;2024-01-06T03:07:03;96500;;;1.62064;100.0
31162;BME280;17796;49.296;-117.656;2024-01-06T03:22:08;96400;;;2.82518;100.0
31162;BME280;17796;49.296;-117.656;2024-01-06T03:37:11;96400;;;2.77627;100.0
31162;BME280;17796;49.296;-117.656;2024-01-06T03:52:15;96400;;;2.44791;100.0
31162;BME280;17796;49.296;-117.656;2024-01-06T04:07:18;96400;;;2.44886;100.0
31162;BME280;17796;49.296;-117.656;2024-01-06T04:22:22;96400;;;2.43266;100.0
31162;BME280;17796;49.296;-117.656;2024-01-06T04:37:26;96300;;;2.5635;100.0
31162;BME280;17796;49.296;-117.656;2024-01-06T04:52:29;96300;;;2.57176;100.0
31162;BME280;17796;49.296;-117.656;2024-01-06T05:07:33;96300;;;2.53111;100.0
31162;BME280;17796;49.296;-117.656;2024-01-06T05:22:37;96300;;;2.58668;100.0
31162;BME280;17796;49.296;-117.656;2024-01-06T05:37:40;96200;;;2.49459;100.0
31162;BME280;17796;49.296;-117.656;2024-01-06T05:52:45;96200;;;2.70292;100.0
31162;BME280;17796;49.296;-117.656;2024-01-06T06:07:50;96200;;;2.20306;100.0
31162;BME280;17796;49.296;-117.656;2024-01-06T06:22:54;96200;;;2.51841;100.0
31162;BME280;17796;49.296;-117.656;2024-01-06T06:37:58;96100;;;2.48347;100.0
31162;BME280;17796;49.296;-117.656;2024-01-06T06:53:02;96100;;;2.09794;100.0
31162;BME280;17796;49.296;-117.656;2024-01-06T07:08:06;96100;;;2.42917;100.0
31162;BME280;17796;49.296;-117.656;2024-01-06T07:23:10;96000;;;2.23831;100.0
31162;BME280;17796;49.296;-117.656;2024-01-06T07:38:14;96000;;;2.27229;100.0
31162;BME280;17796;49.296;-117.656;2024-01-06T07:53:19;96000;;;1.8207;100.0
31162;BME280;17796;49.296;-117.656;2024-01-06T08:08:22;96000;;;2.18686;100.0
31162;BME280;17796;49.296;-117.656;2024-01-06T08:23:26;95900;;;1.91883;100.0
31162;BME280;17796;49.296;-117.656;2024-01-06T08:38:30;95900;;;1.79562;100.0
31162;BME280;17796;49.296;-117.656;2024-01-06T08:53:33;95800;;;1.94233;100.0
31162;BME280;17796;49.296;-117.656;2024-01-06T09:08:37;95800;;;1.86866;100.0
31162;BME280;17796;49.296;-117.656;2024-01-06T09:23:40;95800;;;2.12684;100.0
31162;BME280;17796;49.296;-117.656;2024-01-06T09:38:44;95800;;;1.94202;100.0
31162;BME280;17796;49.296;-117.656;2024-01-06T09:53:48;95700;;;0.84387;100.0
31162;BME280;17796;49.296;-117.656;2024-01-06T10:08:59;95700;;;1.79625;100.0
31162;BME280;17796;49.296;-117.656;2024-01-06T10:24:03;95700;;;2.03252;100.0
31162;BME280;17796;49.296;-117.656;2024-01-06T10:39:10;95600;;;2.00648;100.0
31162;BME280;17796;49.296;-117.656;2024-01-06T10:54:14;95600;;;1.73909;100.0
31162;BME280;17796;49.296;-117.656;2024-01-06T11:09:21;95600;;;1.73528;100.0
31162;BME280;17796;49.296;-117.656;2024-01-06T11:24:32;95600;;;1.99696;100.0
31162;BME280;17796;49.296;-117.656;2024-01-06T11:39:41;95500;;;2.0195;100.0
31162;BME280;17796;49.296;-117.656;2024-01-06T11:54:44;95500;;;1.72099;100.0
31162;BME280;17796;49.296;-117.656;2024-01-06T12:09:50;95400;;;1.70066;100.0
31162;BME280;17796;49.296;-117.656;2024-01-06T12:25:02;95400;;;1.56062;100.0
31162;BME280;17796;49.296;-117.656;2024-01-06T12:40:08;95400;;;1.78927;100.0
31162;BME280;17796;49.296;-117.656;2024-01-06T12:55:13;95300;;;1.29704;100.0
31162;BME280;17796;49.296;-117.656;2024-01-06T13:10:17;95300;;;1.20018;100.0
31162;BME280;17796;49.296;-117.656;2024-01-06T13:25:21;95300;;;1.49615;100.0
31162;BME280;17796;49.296;-117.656;2024-01-06T13:40:24;95300;;;1.87818;100.0
31162;BME280;17796;49.296;-117.656;2024-01-06T13:55:28;95300;;;1.93916;100.0
31162;BME280;17796;49.296;-117.656;2024-01-06T14:10:32;95300;;;1.71622;100.0
31162;BME280;17796;49.296;-117.656;2024-01-06T14:25:36;95200;;;1.8839;100.0
31162;BME280;17796;49.296;-117.656;2024-01-06T14:40:40;95200;;;1.74354;100.0
31162;BME280;17796;49.296;-117.656;2024-01-06T14:55:43;95200;;;1.78673;100.0
31162;BME280;17796;49.296;-117.656;2024-01-06T15:10:47;95200;;;1.76005;100.0
31162;BME280;17796;49.296;-117.656;2024-01-06T15:25:52;95200;;;1.90296;100.0
31162;BME280;17796;49.296;-117.656;2024-01-06T15:40:56;95100;;;1.70733;100.0
31162;BME280;17796;49.296;-117.656;2024-01-06T15:55:59;95100;;;1.87088;100.0
31162;BME280;17796;49.296;-117.656;2024-01-06T16:11:03;95100;;;1.54918;100.0
31162;BME280;17796;49.296;-117.656;2024-01-06T16:26:07;95100;;;1.75306;100.0
31162;BME280;17796;49.296;-117.656;2024-01-06T16:41:11;95100;;;2.08429;100.0
31162;BME280;17796;49.296;-117.656;2024-01-06T16:56:15;95100;;;2.17257;100.0
31162;BME280;17796;49.296;-117.656;2024-01-06T17:11:19;95100;;;1.76767;100.0
31162;BME280;17796;49.296;-117.656;2024-01-06T17:26:23;95100;;;1.2837;100.0
31162;BME280;17796;49.296;-117.656;2024-01-06T17:41:26;95100;;;2.06587;100.0
31162;BME280;17796;49.296;-117.656;2024-01-06T17:56:30;95100;;;2.30341;100.0
31162;BME280;17796;49.296;-117.656;2024-01-06T18:11:34;95000;;;2.27419;100.0
31162;BME280;17796;49.296;-117.656;2024-01-06T18:26:38;95000;;;2.33644;100.0
31162;BME280;17796;49.296;-117.656;2024-01-06T18:41:41;95000;;;2.57144;100.0
31162;BME280;17796;49.296;-117.656;2024-01-06T18:56:45;95000;;;2.55302;100.0
31162;BME280;17796;49.296;-117.656;2024-01-06T19:11:48;95000;;;2.802;100.0
31162;BME280;17796;49.296;-117.656;2024-01-06T19:26:53;95000;;;2.68386;100.0
31162;BME280;17796;49.296;-117.656;2024-01-06T19:41:57;94900;;;2.17734;100.0
31162;BME280;17796;49.296;-117.656;2024-01-06T19:57:03;94900;;;2.36947;100.0
31162;BME280;17796;49.296;-117.656;2024-01-06T20:12:07;94900;;;2.27801;100.0
31162;BME280;17796;49.296;-117.656;2024-01-06T20:27:11;94900;;;2.19575;100.0
31162;BME280;17796;49.296;-117.656;2024-01-06T20:42:14;94900;;;2.27261;100.0
31162;BME280;17796;49.296;-117.656;2024-01-06T20:57:18;94900;;;2.36756;100.0
31162;BME280;17796;49.296;-117.656;2024-01-06T21:12:22;94900;;;2.29515;100.0
31162;BME280;17796;49.296;-117.656;2024-01-06T21:27:26;94900;;;2.29579;100.0
31162;BME280;17796;49.296;-117.656;2024-01-06T21:42:29;94900;;;1.97187;100.0
31162;BME280;17796;49.296;-117.656;2024-01-06T21:57:33;94900;;;2.06428;100.0
31162;BME280;17796;49.296;-117.656;2024-01-06T22:12:37;94900;;;2.17892;100.0
31162;BME280;17796;49.296;-117.656;2024-01-06T22:27:41;94900;;;2.32374;100.0
31162;BME280;17796;49.296;-117.656;2024-01-06T22:42:44;94900;;;2.35105;100.0
31162;BME280;17796;49.296;-117.656;2024-01-06T22:57:48;94900;;;2.3304;100.0
31162;BME280;17796;49.296;-117.656;2024-01-06T23:12:52;94900;;;2.34374;100.0
31162;BME280;17796;49.296;-117.656;2024-01-06T23:27:56;94900;;;2.211;100.0
31162;BME280;17796;49.296;-117.656;2024-01-06T23:43:01;94900;;;2.0954;100.0
31162;BME280;17796;49.296;-117.656;2024-01-06T23:58:07;94900;;;1.82547;100.0
